createdAt,value
2018-10-06T00:00:50.423Z,16.77
2018-10-06T00:04:14.864Z,16.94
2018-10-06T00:07:39.312Z,16.71
2018-10-06T00:11:03.760Z,16.60
2018-10-06T00:14:28.331Z,16.25
2018-10-06T00:17:52.766Z,15.99
2018-10-06T00:21:17.301Z,15.72
2018-10-06T00:24:41.748Z,15.88
2018-10-06T00:28:06.649Z,15.61
2018-10-06T00:31:31.138Z,15.75
2018-10-06T00:34:55.548Z,15.46
2018-10-06T00:38:20.092Z,15.41
2018-10-06T00:41:44.526Z,15.24
2018-10-06T00:45:08.973Z,15.49
2018-10-06T00:48:33.415Z,15.71
2018-10-06T00:51:57.853Z,15.61
2018-10-06T00:55:22.257Z,15.88
2018-10-06T00:58:46.669Z,15.96
2018-10-06T01:02:11.091Z,15.85
2018-10-06T01:05:35.508Z,16.00
2018-10-06T01:08:59.960Z,16.07
2018-10-06T01:12:24.363Z,15.98
2018-10-06T01:15:48.829Z,15.80
2018-10-06T01:19:13.241Z,16.15
2018-10-06T01:22:37.719Z,15.86
2018-10-06T01:26:02.216Z,15.57
2018-10-06T01:29:31.114Z,15.81
2018-10-06T01:32:55.577Z,15.47
2018-10-06T01:36:19.984Z,15.30
2018-10-06T01:39:44.450Z,15.08
2018-10-06T01:43:08.889Z,14.88
2018-10-06T01:46:33.332Z,14.77
2018-10-06T01:49:57.982Z,15.01
2018-10-06T01:53:22.375Z,15.02
2018-10-06T01:56:46.811Z,14.79
2018-10-06T02:00:11.282Z,14.60
2018-10-06T02:03:35.677Z,14.56
2018-10-06T02:07:00.104Z,14.38
2018-10-06T02:10:24.582Z,14.39
2018-10-06T02:13:49.038Z,14.19
2018-10-06T02:17:13.459Z,14.34
2018-10-06T02:20:37.934Z,14.25
2018-10-06T02:24:02.419Z,14.56
2018-10-06T02:27:26.848Z,14.85
2018-10-06T02:30:51.271Z,14.62
2018-10-06T02:34:15.686Z,14.67
2018-10-06T02:37:40.137Z,14.73
2018-10-06T02:41:04.583Z,14.71
2018-10-06T02:44:29.022Z,14.70
2018-10-06T02:47:53.516Z,14.86
2018-10-06T02:51:17.939Z,14.88
2018-10-06T02:54:42.399Z,14.48
2018-10-06T02:58:07.064Z,14.33
2018-10-06T03:01:31.485Z,14.20
2018-10-06T03:04:55.947Z,14.22
2018-10-06T03:08:20.401Z,14.38
2018-10-06T03:11:44.811Z,14.26
2018-10-06T03:15:09.213Z,14.13
2018-10-06T03:18:33.683Z,14.15
2018-10-06T03:21:58.129Z,14.22
2018-10-06T03:25:22.534Z,14.08
2018-10-06T03:28:46.964Z,13.88
2018-10-06T03:32:11.375Z,13.85
2018-10-06T03:35:35.814Z,14.23
2018-10-06T03:39:00.260Z,14.41
2018-10-06T03:42:24.675Z,14.50
2018-10-06T03:45:49.104Z,14.75
2018-10-06T03:49:13.546Z,14.67
2018-10-06T03:52:37.989Z,14.88
2018-10-06T03:56:02.612Z,14.87
2018-10-06T03:59:27.061Z,15.01
2018-10-06T04:02:51.473Z,14.51
2018-10-06T04:06:15.904Z,14.23
2018-10-06T04:09:40.351Z,14.17
2018-10-06T04:13:04.729Z,13.91
2018-10-06T04:16:29.143Z,13.93
2018-10-06T04:19:53.736Z,13.98
2018-10-06T04:23:18.194Z,13.89
2018-10-06T04:26:42.620Z,13.82
2018-10-06T04:30:07.668Z,13.73
2018-10-06T04:33:32.120Z,13.76
2018-10-06T04:36:56.537Z,13.73
2018-10-06T04:40:21.012Z,13.90
2018-10-06T04:43:45.401Z,14.13
2018-10-06T04:47:09.873Z,14.29
2018-10-06T04:50:34.386Z,14.30
2018-10-06T04:53:58.837Z,14.50
2018-10-06T04:57:23.269Z,14.55
2018-10-06T05:00:54.501Z,14.68
2018-10-06T05:04:18.923Z,14.83
2018-10-06T05:07:43.384Z,14.90
2018-10-06T05:11:07.806Z,15.06
2018-10-06T05:14:32.224Z,15.21
2018-10-06T05:17:56.679Z,15.15
2018-10-06T05:21:21.172Z,15.24
2018-10-06T05:24:45.823Z,15.06
2018-10-06T05:28:10.230Z,14.86
2018-10-06T05:31:41.290Z,14.91
2018-10-06T05:35:05.867Z,14.80
2018-10-06T05:38:30.288Z,14.60
2018-10-06T05:41:54.814Z,14.73
2018-10-06T05:45:19.220Z,14.76
2018-10-06T05:48:43.626Z,14.63
2018-10-06T05:52:08.236Z,14.67
2018-10-06T05:55:32.749Z,14.54
2018-10-06T05:58:57.378Z,14.57
2018-10-06T06:02:21.779Z,14.56
2018-10-06T06:05:46.226Z,14.76
2018-10-06T06:09:10.662Z,14.67
2018-10-06T06:12:37.553Z,14.88
2018-10-06T06:16:08.089Z,14.95
2018-10-06T06:19:32.497Z,15.14
2018-10-06T06:22:57.066Z,15.22
2018-10-06T06:26:23.100Z,15.39
2018-10-06T06:29:47.768Z,15.53
2018-10-06T06:33:12.148Z,15.53
2018-10-06T06:36:37.306Z,15.52
2018-10-06T06:40:02.091Z,15.75
2018-10-06T06:43:28.578Z,15.79
2018-10-06T06:46:55.255Z,15.88
2018-10-06T06:54:00.720Z,16.08
2018-10-06T06:57:25.173Z,16.28
2018-10-06T07:00:49.565Z,16.38
2018-10-06T07:04:14.084Z,16.44
2018-10-06T07:07:38.582Z,16.40
2018-10-06T07:11:03.162Z,16.47
2018-10-06T07:14:27.572Z,16.57
2018-10-06T07:17:52.049Z,16.72
2018-10-06T07:21:16.443Z,16.76
2018-10-06T07:24:40.927Z,16.88
2018-10-06T07:28:05.431Z,17.07
2018-10-06T07:31:29.872Z,17.15
2018-10-06T07:34:54.277Z,17.25
2018-10-06T07:38:18.654Z,17.32
2018-10-06T07:41:43.127Z,17.51
2018-10-06T07:45:07.628Z,17.54
2018-10-06T07:48:32.062Z,17.66
2018-10-06T07:51:56.525Z,17.70
2018-10-06T07:55:21.107Z,17.57
2018-10-06T07:58:45.556Z,17.54
2018-10-06T08:02:10.004Z,17.74
2018-10-06T08:05:34.452Z,17.71
2018-10-06T08:08:58.864Z,17.84
2018-10-06T08:12:23.344Z,17.99
2018-10-06T08:15:47.761Z,18.04
2018-10-06T08:19:12.216Z,17.95
2018-10-06T08:22:36.660Z,18.11
2018-10-06T08:26:01.094Z,18.15
2018-10-06T08:29:25.526Z,18.34
2018-10-06T08:32:49.988Z,18.49
2018-10-06T08:36:14.544Z,18.95
2018-10-06T08:39:38.982Z,18.97
2018-10-06T08:43:03.420Z,19.10
2018-10-06T08:46:27.853Z,19.02
2018-10-06T08:49:52.309Z,19.02
2018-10-06T08:53:16.767Z,19.35
2018-10-06T08:56:41.180Z,19.43
2018-10-06T09:00:05.740Z,19.58
2018-10-06T09:03:30.159Z,19.83
2018-10-06T09:06:54.614Z,20.18
2018-10-06T09:10:19.047Z,20.48
2018-10-06T09:13:44.356Z,20.94
2018-10-06T09:17:08.838Z,20.81
2018-10-06T09:20:33.256Z,21.02
2018-10-06T09:23:57.718Z,21.22
2018-10-06T09:27:22.154Z,21.42
2018-10-06T09:30:46.569Z,22.20
2018-10-06T09:34:11.038Z,22.74
2018-10-06T09:37:35.531Z,24.77
2018-10-06T09:41:00.135Z,26.81
2018-10-06T09:44:24.561Z,28.39
2018-10-06T09:47:49.027Z,29.73
2018-10-06T09:51:13.459Z,30.87
2018-10-06T09:54:37.927Z,29.77
2018-10-06T09:58:02.326Z,30.81
2018-10-06T10:01:31.933Z,31.62
2018-10-06T10:05:00.431Z,32.25
2018-10-06T10:08:24.934Z,31.46
2018-10-06T10:11:49.391Z,31.00
2018-10-06T10:15:13.861Z,30.84
2018-10-06T10:18:38.245Z,32.06
2018-10-06T10:22:02.743Z,31.71
2018-10-06T10:25:27.123Z,31.19
2018-10-06T10:28:51.592Z,33.08
2018-10-06T10:32:16.048Z,32.15
2018-10-06T10:35:40.526Z,33.98
2018-10-06T10:39:05.953Z,33.43
2018-10-06T10:42:30.380Z,31.19
2018-10-06T10:45:54.875Z,30.94
2018-10-06T10:49:19.363Z,32.36
2018-10-06T10:52:43.843Z,32.65
2018-10-06T10:56:08.283Z,32.72
2018-10-06T10:59:32.785Z,33.86
2018-10-06T11:02:57.132Z,33.37
2018-10-06T11:06:24.803Z,33.09
2018-10-06T11:09:49.311Z,33.84
2018-10-06T11:13:13.742Z,35.03
2018-10-06T11:16:38.206Z,35.14
2018-10-06T11:20:02.599Z,34.05
2018-10-06T11:23:27.012Z,34.14
2018-10-06T11:26:51.390Z,32.70
2018-10-06T11:30:15.909Z,32.33
2018-10-06T11:33:40.306Z,34.08
2018-10-06T11:37:04.726Z,34.38
2018-10-06T11:40:29.124Z,34.46
2018-10-06T11:43:53.584Z,33.62
2018-10-06T11:47:18.021Z,33.56
2018-10-06T11:50:42.430Z,30.55
2018-10-06T11:54:06.957Z,32.69
2018-10-06T11:57:31.393Z,31.99
2018-10-06T12:00:55.804Z,32.98
2018-10-06T12:04:20.221Z,32.93
2018-10-06T12:07:44.624Z,32.99
2018-10-06T12:11:09.134Z,31.52
2018-10-06T12:14:33.605Z,33.62
2018-10-06T12:17:58.035Z,34.18
2018-10-06T12:21:22.420Z,34.06
2018-10-06T12:24:46.933Z,33.20
2018-10-06T12:28:11.324Z,34.01
2018-10-06T12:31:35.699Z,34.83
2018-10-06T12:35:00.158Z,36.32
2018-10-06T12:38:24.569Z,36.66
2018-10-06T12:41:48.974Z,36.04
2018-10-06T12:45:13.398Z,36.62
2018-10-06T12:48:37.795Z,35.58
2018-10-06T12:52:02.228Z,37.66
2018-10-06T12:55:27.784Z,38.68
2018-10-06T12:58:52.226Z,37.54
2018-10-06T13:02:16.651Z,37.80
2018-10-06T13:05:41.104Z,36.15
2018-10-06T13:09:08.077Z,33.97
2018-10-06T13:12:32.495Z,33.16
2018-10-06T13:15:56.976Z,32.68
2018-10-06T13:19:21.381Z,32.23
2018-10-06T13:22:45.809Z,32.52
2018-10-06T13:26:10.265Z,32.20
2018-10-06T13:29:34.661Z,31.54
2018-10-06T13:32:59.155Z,31.22
2018-10-06T13:36:23.603Z,30.88
2018-10-06T13:39:48.153Z,31.61
2018-10-06T13:43:12.609Z,31.82
2018-10-06T13:46:37.178Z,29.82
2018-10-06T13:50:01.581Z,30.22
2018-10-06T13:53:26.010Z,31.32
2018-10-06T13:56:50.864Z,34.11
2018-10-06T14:00:15.298Z,34.14
2018-10-06T14:03:39.695Z,33.82
2018-10-06T14:07:04.240Z,34.85
2018-10-06T14:10:28.683Z,36.54
2018-10-06T14:13:53.213Z,35.64
2018-10-06T14:17:17.635Z,36.96
2018-10-06T14:20:42.097Z,37.67
2018-10-06T14:24:06.487Z,38.26
2018-10-06T14:27:30.885Z,37.51
2018-10-06T14:30:55.342Z,37.73
2018-10-06T14:34:19.737Z,37.55
2018-10-06T14:37:44.160Z,37.96
2018-10-06T14:41:08.614Z,37.71
2018-10-06T14:44:33.120Z,37.12
2018-10-06T14:47:57.558Z,36.40
2018-10-06T14:51:22.021Z,35.43
2018-10-06T14:54:46.475Z,33.96
2018-10-06T14:58:10.896Z,32.36
2018-10-06T15:01:35.314Z,32.21
2018-10-06T15:04:59.722Z,31.87
2018-10-06T15:08:24.140Z,31.39
2018-10-06T15:11:48.570Z,31.38
2018-10-06T15:15:12.924Z,30.98
2018-10-06T15:18:37.348Z,30.45
2018-10-06T15:22:01.808Z,30.43
2018-10-06T15:25:26.228Z,30.67
2018-10-06T15:28:50.613Z,31.20
2018-10-06T15:32:15.152Z,33.29
2018-10-06T15:35:39.574Z,35.51
2018-10-06T15:39:05.020Z,37.93
2018-10-06T15:42:29.425Z,38.94
2018-10-06T15:45:53.813Z,40.06
2018-10-06T15:49:18.241Z,40.81
2018-10-06T15:52:42.596Z,40.22
2018-10-06T15:56:07.054Z,37.97
2018-10-06T15:59:31.488Z,35.73
2018-10-06T16:02:55.934Z,34.32
2018-10-06T16:06:20.428Z,33.01
2018-10-06T16:09:44.869Z,31.96
2018-10-06T16:13:09.344Z,31.34
2018-10-06T16:16:33.785Z,30.64
2018-10-06T16:19:58.204Z,30.27
2018-10-06T16:23:22.629Z,30.07
2018-10-06T16:26:47.177Z,29.70
2018-10-06T16:30:11.558Z,29.25
2018-10-06T16:33:36.006Z,28.29
2018-10-06T16:37:00.443Z,28.15
2018-10-06T16:40:24.945Z,27.94
2018-10-06T16:43:49.375Z,27.61
2018-10-06T16:47:15.567Z,27.49
2018-10-06T16:50:40.042Z,27.37
2018-10-06T16:54:04.446Z,27.10
2018-10-06T16:57:28.868Z,26.75
2018-10-06T17:00:53.320Z,26.25
2018-10-06T17:04:17.729Z,26.11
2018-10-06T17:07:42.208Z,25.92
2018-10-06T17:11:06.633Z,25.78
2018-10-06T17:14:31.077Z,25.41
2018-10-06T17:17:55.594Z,25.09
2018-10-06T17:21:20.008Z,24.97
2018-10-06T17:24:44.450Z,24.63
2018-10-06T17:28:08.899Z,24.43
2018-10-06T17:31:33.286Z,24.38
2018-10-06T17:34:57.784Z,24.22
2018-10-06T17:38:22.212Z,23.75
2018-10-06T17:41:46.645Z,23.93
2018-10-06T17:45:12.050Z,23.57
2018-10-06T17:48:36.535Z,23.62
2018-10-06T17:52:00.942Z,23.50
2018-10-06T17:55:25.355Z,23.14
2018-10-06T17:58:49.811Z,23.11
2018-10-06T18:02:14.274Z,22.82
2018-10-06T18:05:38.659Z,22.42
2018-10-06T18:09:03.119Z,22.56
2018-10-06T18:12:28.026Z,22.28
2018-10-06T18:15:52.504Z,22.30
2018-10-06T18:19:16.941Z,22.21
2018-10-06T18:22:41.503Z,22.26
2018-10-06T18:26:06.035Z,22.02
2018-10-06T18:29:30.498Z,22.05
2018-10-06T18:32:54.973Z,21.76
2018-10-06T18:36:19.429Z,21.74
2018-10-06T18:39:43.886Z,21.97
2018-10-06T18:43:08.434Z,22.03
2018-10-06T18:46:33.158Z,21.70
2018-10-06T18:49:57.630Z,21.67
2018-10-06T18:53:22.040Z,21.78
2018-10-06T18:56:46.470Z,22.07
2018-10-06T19:00:10.948Z,21.71
2018-10-06T19:03:35.469Z,21.72
2018-10-06T19:06:59.830Z,21.77
2018-10-06T19:10:24.275Z,21.66
2018-10-06T19:13:48.695Z,21.68
2018-10-06T19:17:13.200Z,21.73
2018-10-06T19:20:37.613Z,21.73
2018-10-06T19:24:02.123Z,21.81
2018-10-06T19:27:26.585Z,21.95
2018-10-06T19:30:50.993Z,21.98
2018-10-06T19:34:15.378Z,21.92
2018-10-06T19:37:39.760Z,21.60
2018-10-06T19:41:04.218Z,21.52
2018-10-06T19:44:28.641Z,21.38
2018-10-06T19:47:53.166Z,21.12
2018-10-06T19:51:17.537Z,20.98
2018-10-06T19:54:48.408Z,20.64
2018-10-06T19:58:12.926Z,20.81
2018-10-06T20:01:37.546Z,20.60
2018-10-06T20:05:01.982Z,20.78
2018-10-06T20:08:26.407Z,20.45
2018-10-06T20:11:51.567Z,20.54
2018-10-06T20:15:15.990Z,20.73
2018-10-06T20:18:40.402Z,20.97
2018-10-06T20:22:04.815Z,20.60
2018-10-06T20:25:29.283Z,20.65
2018-10-06T20:28:53.865Z,20.85
2018-10-06T20:32:18.408Z,20.89
2018-10-06T20:35:42.818Z,20.73
2018-10-06T20:39:08.555Z,20.62
2018-10-06T20:42:32.995Z,20.73
2018-10-06T20:45:57.474Z,20.74
2018-10-06T20:49:21.989Z,20.72
2018-10-06T20:52:46.417Z,20.67
2018-10-06T20:56:10.831Z,20.66
2018-10-06T20:59:35.293Z,20.57
2018-10-06T21:02:59.710Z,20.49
2018-10-06T21:06:24.129Z,20.50
2018-10-06T21:09:48.602Z,20.27
2018-10-06T21:13:13.031Z,20.09
2018-10-06T21:16:37.834Z,19.97
2018-10-06T21:20:02.247Z,19.96
2018-10-06T21:23:26.685Z,19.80
2018-10-06T21:26:51.176Z,19.74
2018-10-06T21:30:15.629Z,19.91
2018-10-06T21:33:40.040Z,19.77
2018-10-06T21:37:04.543Z,19.76
2018-10-06T21:40:28.999Z,19.79
2018-10-06T21:43:53.414Z,19.73
2018-10-06T21:47:17.806Z,19.61
2018-10-06T21:50:42.258Z,19.67
2018-10-06T21:54:06.582Z,19.62
2018-10-06T21:57:31.108Z,19.47
2018-10-06T22:01:00.779Z,19.66
2018-10-06T22:08:29.581Z,19.25
2018-10-06T22:11:54.227Z,19.28
2018-10-06T22:15:18.753Z,19.31
2018-10-06T22:18:45.955Z,19.36
2018-10-06T22:22:20.695Z,19.36
2018-10-06T22:25:46.839Z,19.41
2018-10-06T22:29:11.483Z,19.25
2018-10-06T22:32:44.576Z,19.20
2018-10-06T22:36:12.795Z,19.45
2018-10-06T22:39:47.919Z,19.43
2018-10-06T22:43:12.428Z,19.61
2018-10-06T22:50:33.263Z,19.52
2018-10-06T22:53:57.694Z,19.48
2018-10-06T22:57:22.084Z,19.56
2018-10-06T23:00:46.498Z,19.46
2018-10-06T23:04:10.924Z,19.43
2018-10-06T23:07:35.322Z,19.27
2018-10-06T23:10:59.810Z,19.20
2018-10-06T23:14:24.312Z,19.24
2018-10-06T23:17:48.709Z,19.21
2018-10-06T23:21:13.132Z,19.10
2018-10-06T23:24:39.403Z,19.12
2018-10-06T23:28:03.952Z,19.20
2018-10-06T23:31:28.430Z,19.09
2018-10-06T23:34:52.849Z,19.04
2018-10-06T23:38:17.251Z,19.02
2018-10-06T23:41:41.657Z,19.06
2018-10-06T23:45:06.443Z,18.95
2018-10-06T23:48:30.866Z,18.97
2018-10-06T23:51:55.270Z,18.93
2018-10-06T23:55:19.688Z,18.92
2018-10-06T23:58:44.109Z,18.93
